Time;durP1;ratioP1;P1;durP2;ratioP2;P2;SDS_P1;SDS_P2;PMS_P1;PMS_P2;Temp;Humidity;BMP_temperature;BMP_pressure;BME280_temperature;BME280_humidity;BME280_pressure;Samples;Min_cycle;Max_cycle;Signal;HPM_P1;HPM_P2
2023/06/10 00:00:47;;;;;;;25.92;23.80;;;17.70;99.90;;;;;;5041247;28;20126;-76
2023/06/10 00:03:14;;;;;;;25.13;23.05;;;17.70;99.90;;;;;;5060437;28;20057;-77
2023/06/10 00:05:41;;;;;;;25.27;23.25;;;17.70;99.90;;;;;;5049469;28;20125;-76
2023/06/10 00:08:08;;;;;;;25.00;22.75;;;17.70;99.90;;;;;;5063440;28;20047;-76
2023/06/10 00:10:35;;;;;;;24.55;22.55;;;17.70;99.90;;;;;;5060096;28;20056;-76
2023/06/10 00:13:08;;;;;;;24.45;22.63;;;17.70;99.90;;;;;;5067592;28;20057;-76
2023/06/10 00:15:35;;;;;;;24.60;22.60;;;17.80;99.90;;;;;;5060466;28;20414;-76
2023/06/10 00:18:03;;;;;;;24.13;22.38;;;17.80;99.90;;;;;;5063705;28;20049;-76
2023/06/10 00:20:30;;;;;;;23.73;21.98;;;17.80;99.90;;;;;;5053005;28;20476;-76
2023/06/10 00:22:59;;;;;;;24.60;22.77;;;17.80;99.90;;;;;;5066460;28;20124;-76
2023/06/10 00:25:26;;;;;;;24.13;22.33;;;17.80;99.90;;;;;;5053642;28;20113;-76
2023/06/10 00:27:52;;;;;;;24.08;22.33;;;17.80;99.90;;;;;;5061368;28;20165;-76
2023/06/10 00:30:21;;;;;;;25.10;23.23;;;17.80;99.90;;;;;;5051778;28;20032;-76
2023/06/10 00:32:48;;;;;;;24.48;22.50;;;17.70;99.90;;;;;;5036496;28;20052;-77
2023/06/10 00:35:14;;;;;;;24.90;22.77;;;17.70;99.90;;;;;;5051722;28;20534;-77
2023/06/10 00:37:42;;;;;;;25.13;23.20;;;17.80;99.90;;;;;;5051061;28;20048;-77
2023/06/10 00:40:09;;;;;;;25.05;23.15;;;17.70;99.90;;;;;;5054527;28;20511;-76
2023/06/10 00:42:36;;;;;;;24.30;22.50;;;17.70;99.90;;;;;;5042065;28;20066;-76
2023/06/10 00:45:03;;;;;;;24.88;22.85;;;17.70;99.90;;;;;;5052030;28;20044;-76
2023/06/10 00:47:30;;;;;;;24.98;22.95;;;17.70;99.90;;;;;;5044667;28;20077;-77
2023/06/10 00:49:57;;;;;;;24.30;22.50;;;17.60;99.90;;;;;;5066728;28;20424;-76
2023/06/10 00:52:29;;;;;;;24.50;22.75;;;17.60;99.90;;;;;;5028325;28;20532;-76
2023/06/10 00:54:56;;;;;;;24.63;22.80;;;17.40;99.90;;;;;;5048869;28;20843;-77
2023/06/10 00:57:22;;;;;;;25.90;23.90;;;17.40;99.90;;;;;;5070263;28;20168;-77
2023/06/10 00:59:49;;;;;;;24.95;23.05;;;17.20;99.90;;;;;;5050486;28;20559;-77
2023/06/10 01:02:16;;;;;;;25.92;24.02;;;17.00;99.90;;;;;;5057143;28;20051;-77
2023/06/10 01:04:43;;;;;;;26.65;24.67;;;16.80;99.90;;;;;;5054552;28;20043;-77
2023/06/10 01:07:28;;;;;;;26.15;24.05;;;16.70;99.90;;;;;;5057138;28;20135;-77
2023/06/10 01:10:04;;;;;;;26.75;24.38;;;16.50;99.90;;;;;;5069042;28;20040;-77
2023/06/10 01:12:41;;;;;;;27.08;24.77;;;16.30;99.90;;;;;;5054192;28;20163;-77
2023/06/10 01:15:09;;;;;;;26.95;24.83;;;16.10;99.90;;;;;;5072734;28;20051;-77
2023/06/10 01:18:01;;;;;;;27.48;25.20;;;16.00;99.90;;;;;;5067732;28;20070;-77
2023/06/10 01:20:32;;;;;;;25.73;23.77;;;16.00;99.90;;;;;;5028113;28;20265;-77
2023/06/10 01:23:00;;;;;;;26.70;24.70;;;15.80;99.90;;;;;;5072280;28;20043;-77
2023/06/10 01:25:28;;;;;;;26.20;24.02;;;15.70;99.90;;;;;;5038209;28;20064;-77
2023/06/10 01:28:04;;;;;;;25.83;23.85;;;15.70;99.90;;;;;;5067675;28;20534;-77
2023/06/10 01:30:43;;;;;;;25.33;23.20;;;15.70;99.90;;;;;;5050739;28;20123;-77
2023/06/10 01:33:12;;;;;;;25.63;23.63;;;15.50;99.90;;;;;;5071728;28;20097;-77
2023/06/10 01:35:40;;;;;;;25.70;23.67;;;15.40;99.90;;;;;;5069840;28;20052;-77
2023/06/10 01:38:08;;;;;;;25.20;23.10;;;15.30;99.90;;;;;;5047092;28;20040;-77
2023/06/10 01:40:35;;;;;;;25.50;23.58;;;15.20;99.90;;;;;;5048575;28;20076;-77
2023/06/10 01:43:03;;;;;;;26.13;23.85;;;15.30;99.90;;;;;;5056737;28;20043;-77
2023/06/10 01:45:29;;;;;;;25.77;23.67;;;15.20;99.90;;;;;;5071671;28;20486;-76
2023/06/10 01:47:56;;;;;;;25.48;23.33;;;15.10;99.90;;;;;;5072201;28;20147;-77
2023/06/10 01:50:23;;;;;;;25.20;23.30;;;15.20;99.90;;;;;;5035976;28;20136;-77
2023/06/10 01:52:50;;;;;;;25.52;23.42;;;15.20;99.90;;;;;;5063825;28;20108;-77
2023/06/10 01:55:16;;;;;;;25.40;23.33;;;15.30;99.90;;;;;;5070412;28;20055;-77
2023/06/10 01:57:43;;;;;;;24.77;22.88;;;15.30;99.90;;;;;;5049142;28;20234;-77
2023/06/10 02:00:10;;;;;;;26.23;23.88;;;15.40;99.90;;;;;;5056087;28;20051;-75
2023/06/10 02:02:44;;;;;;;26.40;23.97;;;15.60;99.90;;;;;;5068939;28;20048;-76
2023/06/10 02:05:11;;;;;;;25.35;23.33;;;15.70;99.90;;;;;;5031560;28;20297;-77
2023/06/10 02:07:38;;;;;;;25.25;23.35;;;15.70;99.90;;;;;;5067736;28;20125;-77
2023/06/10 02:10:06;;;;;;;24.73;22.67;;;15.70;99.90;;;;;;5041450;28;20040;-76
2023/06/10 02:12:33;;;;;;;24.73;22.73;;;15.70;99.90;;;;;;5054173;28;20562;-77
2023/06/10 02:14:59;;;;;;;24.88;22.67;;;15.60;99.90;;;;;;5037192;28;20059;-77
2023/06/10 02:17:26;;;;;;;25.27;23.17;;;15.50;99.90;;;;;;5070153;28;20152;-76
2023/06/10 02:19:53;;;;;;;24.90;22.88;;;15.50;99.90;;;;;;5047275;28;20135;-76
2023/06/10 02:22:22;;;;;;;24.38;22.58;;;15.40;99.90;;;;;;5053402;28;20090;-77
2023/06/10 02:24:49;;;;;;;25.27;23.38;;;15.40;99.90;;;;;;5053427;28;20167;-76
2023/06/10 02:27:17;;;;;;;24.88;22.98;;;15.40;99.90;;;;;;5038066;28;20078;-76
2023/06/10 02:29:44;;;;;;;24.80;22.75;;;15.40;99.90;;;;;;5065489;28;20052;-76
2023/06/10 02:32:11;;;;;;;25.73;23.13;;;15.50;99.90;;;;;;5055786;28;20044;-76
2023/06/10 02:34:40;;;;;;;25.90;23.55;;;15.40;99.90;;;;;;5049104;28;20126;-77
2023/06/10 02:37:07;;;;;;;25.40;23.33;;;15.30;99.90;;;;;;5074900;28;20145;-77
2023/06/10 02:39:34;;;;;;;24.70;22.80;;;15.30;99.90;;;;;;5049163;28;20056;-77
2023/06/10 02:42:05;;;;;;;24.30;22.58;;;15.40;99.90;;;;;;5033878;28;20490;-77
2023/06/10 02:44:32;;;;;;;24.35;22.58;;;15.10;99.90;;;;;;5053140;28;20080;-77
2023/06/10 02:46:59;;;;;;;25.45;23.40;;;15.00;99.90;;;;;;5045156;28;20135;-77
2023/06/10 02:49:28;;;;;;;25.30;23.27;;;15.00;99.90;;;;;;5044726;28;20529;-76
2023/06/10 02:51:56;;;;;;;25.52;23.52;;;15.10;99.90;;;;;;5045387;28;20125;-77
2023/06/10 02:54:24;;;;;;;25.88;23.75;;;14.90;99.90;;;;;;5055101;28;20085;-77
2023/06/10 02:56:52;;;;;;;25.80;23.80;;;14.70;99.90;;;;;;5051975;28;20036;-77
2023/06/10 02:59:23;;;;;;;29.83;27.40;;;14.50;99.90;;;;;;5052964;28;20094;-77
2023/06/10 03:01:49;;;;;;;25.88;23.65;;;14.60;99.90;;;;;;5061780;28;20056;-76
2023/06/10 03:04:17;;;;;;;24.83;22.92;;;14.50;99.90;;;;;;5052886;28;20080;-77
2023/06/10 03:06:52;;;;;;;26.52;24.08;;;14.40;99.90;;;;;;5046613;28;20607;-77
2023/06/10 03:09:24;;;;;;;24.73;22.45;;;14.30;99.90;;;;;;5039802;28;20135;-77
2023/06/10 03:11:55;;;;;;;24.40;22.52;;;14.30;99.90;;;;;;5052198;28;20036;-77
2023/06/10 03:14:22;;;;;;;25.13;23.08;;;14.20;99.90;;;;;;5047746;28;20101;-77
2023/06/10 03:16:49;;;;;;;25.23;23.20;;;14.30;99.90;;;;;;5050923;28;20039;-77
2023/06/10 03:19:15;;;;;;;24.45;22.55;;;14.30;99.90;;;;;;5056937;28;20541;-77
2023/06/10 03:21:54;;;;;;;24.95;23.08;;;14.40;99.90;;;;;;5045523;28;20052;-77
2023/06/10 03:24:21;;;;;;;25.08;23.08;;;14.50;99.90;;;;;;5030692;28;20041;-77
2023/06/10 03:26:49;;;;;;;24.77;22.70;;;14.50;99.90;;;;;;5051179;28;20103;-77
2023/06/10 03:29:16;;;;;;;24.42;22.40;;;14.50;99.90;;;;;;5043515;28;20524;-77
2023/06/10 03:31:43;;;;;;;30.48;28.25;;;14.50;99.90;;;;;;5045475;28;20048;-77
2023/06/10 03:34:11;;;;;;;29.80;27.60;;;14.50;99.90;;;;;;5033528;28;20076;-77
2023/06/10 03:36:42;;;;;;;29.80;27.67;;;14.50;99.90;;;;;;5052346;28;20044;-77
2023/06/10 03:39:10;;;;;;;29.48;27.40;;;14.60;99.90;;;;;;5031246;28;20067;-76
2023/06/10 03:41:37;;;;;;;28.40;26.13;;;14.70;99.90;;;;;;5045812;28;20049;-77
2023/06/10 03:44:04;;;;;;;28.60;26.58;;;14.70;99.90;;;;;;5045581;28;21814;-78
2023/06/10 03:46:31;;;;;;;28.40;26.23;;;14.80;99.90;;;;;;5052016;28;20072;-77
2023/06/10 03:49:00;;;;;;;28.58;26.42;;;14.80;99.90;;;;;;5054393;28;20122;-76
2023/06/10 03:51:28;;;;;;;28.70;26.67;;;14.70;99.90;;;;;;5051660;28;20128;-77
2023/06/10 03:53:54;;;;;;;28.15;26.10;;;14.60;99.90;;;;;;5052115;28;20043;-77
2023/06/10 03:56:21;;;;;;;28.30;26.23;;;14.70;99.90;;;;;;5049574;28;20075;-77
2023/06/10 03:58:49;;;;;;;27.88;25.85;;;14.70;99.90;;;;;;5067036;28;20715;-77
2023/06/10 04:01:17;;;;;;;28.42;26.23;;;14.70;99.90;;;;;;5048939;28;20052;-77
2023/06/10 04:03:45;;;;;;;27.85;25.65;;;14.80;99.90;;;;;;5055151;28;20102;-77
2023/06/10 04:06:12;;;;;;;27.10;24.92;;;14.80;99.90;;;;;;5048267;28;20386;-77
2023/06/10 04:08:39;;;;;;;27.83;25.48;;;14.80;99.90;;;;;;5065488;28;20032;-78
2023/06/10 04:11:05;;;;;;;26.95;25.05;;;14.90;99.90;;;;;;5026865;28;20129;-77
2023/06/10 04:13:32;;;;;;;27.42;25.25;;;14.80;99.90;;;;;;5053872;28;20056;-77
2023/06/10 04:15:59;;;;;;;26.55;24.40;;;14.80;99.90;;;;;;5034709;28;20525;-77
2023/06/10 04:18:26;;;;;;;27.55;25.55;;;15.00;99.90;;;;;;5034632;28;20457;-77
2023/06/10 04:20:56;;;;;;;26.80;24.67;;;15.20;99.90;;;;;;5062207;28;20075;-77
2023/06/10 04:23:23;;;;;;;27.40;25.40;;;15.20;99.90;;;;;;5045779;28;20048;-76
2023/06/10 04:25:50;;;;;;;27.50;25.48;;;15.30;99.90;;;;;;5051303;28;20043;-76
2023/06/10 04:28:18;;;;;;;28.13;25.67;;;15.40;99.90;;;;;;5052310;28;20044;-77
2023/06/10 04:30:45;;;;;;;28.10;25.70;;;15.60;99.90;;;;;;5050548;28;20052;-76
2023/06/10 04:33:13;;;;;;;27.20;25.40;;;15.80;99.90;;;;;;5053142;28;20117;-77
2023/06/10 04:35:40;;;;;;;28.52;26.27;;;16.20;99.90;;;;;;5027578;28;20051;-77
2023/06/10 04:38:09;;;;;;;28.27;26.33;;;16.50;99.90;;;;;;5058606;28;20040;-77
2023/06/10 04:40:36;;;;;;;27.92;25.92;;;16.80;99.90;;;;;;5055389;28;20040;-77
2023/06/10 04:43:04;;;;;;;27.52;25.63;;;17.00;99.90;;;;;;5055727;28;20035;-77
2023/06/10 04:45:32;;;;;;;28.92;26.90;;;17.20;99.90;;;;;;5056526;28;20386;-77
2023/06/10 04:47:59;;;;;;;27.25;25.48;;;17.40;99.90;;;;;;5057622;28;20101;-77
2023/06/10 04:50:27;;;;;;;27.50;25.50;;;17.60;99.90;;;;;;5054635;28;20425;-77
2023/06/10 04:52:57;;;;;;;27.77;25.65;;;18.00;99.90;;;;;;5054970;28;20514;-76
2023/06/10 04:55:25;;;;;;;30.45;27.60;;;18.10;99.90;;;;;;5042558;28;20044;-76
2023/06/10 04:57:52;;;;;;;30.38;28.15;;;18.10;99.90;;;;;;5055063;28;20228;-77
2023/06/10 05:00:18;;;;;;;30.33;27.98;;;18.10;99.90;;;;;;5075452;28;20048;-76
2023/06/10 05:02:49;;;;;;;29.58;27.58;;;18.40;99.90;;;;;;5054897;28;20036;-77
2023/06/10 05:05:17;;;;;;;28.60;26.48;;;18.30;99.90;;;;;;5068410;28;20039;-77
2023/06/10 05:07:44;;;;;;;28.25;26.23;;;18.60;99.90;;;;;;5067725;28;20415;-76
2023/06/10 05:10:14;;;;;;;28.80;26.75;;;18.70;99.90;;;;;;5052427;28;20060;-77
2023/06/10 05:12:41;;;;;;;28.33;26.35;;;18.40;99.90;;;;;;5057243;28;20406;-76
2023/06/10 05:15:08;;;;;;;29.17;27.08;;;18.30;99.90;;;;;;5072191;28;20075;-76
2023/06/10 05:17:35;;;;;;;28.15;26.25;;;18.30;99.90;;;;;;5037855;28;20049;-77
2023/06/10 05:20:03;;;;;;;28.38;26.35;;;18.30;99.90;;;;;;5046575;28;20054;-77
2023/06/10 05:22:30;;;;;;;29.38;27.27;;;18.40;99.90;;;;;;5068478;28;20064;-75
2023/06/10 05:24:56;;;;;;;28.85;27.05;;;18.20;99.90;;;;;;5070758;28;20046;-76
2023/06/10 05:27:24;;;;;;;29.17;27.23;;;18.20;99.90;;;;;;5068299;28;20066;-76
2023/06/10 05:29:51;;;;;;;28.98;26.77;;;18.20;99.90;;;;;;5066956;28;20128;-77
2023/06/10 05:32:18;;;;;;;28.65;26.65;;;18.30;99.90;;;;;;5053570;28;20033;-76
2023/06/10 05:34:45;;;;;;;30.02;27.48;;;18.30;99.90;;;;;;5066786;28;20040;-77
2023/06/10 05:37:12;;;;;;;29.25;26.92;;;18.40;99.90;;;;;;5048439;28;20040;-77
2023/06/10 05:39:39;;;;;;;27.85;26.02;;;18.50;99.90;;;;;;5071122;28;20098;-77
2023/06/10 05:42:07;;;;;;;29.23;27.13;;;18.60;99.90;;;;;;5064694;28;20338;-78
2023/06/10 05:44:34;;;;;;;28.77;26.83;;;18.80;99.90;;;;;;5066035;28;20040;-77
2023/06/10 05:47:01;;;;;;;28.02;25.95;;;19.10;99.90;;;;;;5062321;28;20119;-77
2023/06/10 05:49:28;;;;;;;31.85;29.58;;;19.30;99.90;;;;;;5033834;28;20036;-77
2023/06/10 05:51:57;;;;;;;32.30;29.98;;;19.40;99.90;;;;;;5073925;28;20044;-76
2023/06/10 05:54:25;;;;;;;31.75;29.65;;;19.40;99.90;;;;;;5060356;28;20097;-77
2023/06/10 05:56:55;;;;;;;31.05;28.80;;;19.40;99.90;;;;;;5074930;28;20044;-76
2023/06/10 05:59:22;;;;;;;32.42;29.88;;;19.40;99.90;;;;;;5057743;28;20089;-77
2023/06/10 06:01:52;;;;;;;29.88;27.98;;;19.30;99.90;;;;;;5047497;28;20044;-77
2023/06/10 06:04:19;;;;;;;32.33;30.30;;;19.50;99.90;;;;;;5055660;28;20052;-77
2023/06/10 06:06:46;;;;;;;32.33;30.05;;;19.70;99.90;;;;;;5050498;28;20175;-76
2023/06/10 06:09:12;;;;;;;33.13;30.80;;;19.80;99.90;;;;;;5055768;28;20465;-77
2023/06/10 06:11:39;;;;;;;32.17;30.00;;;19.70;99.90;;;;;;5048504;28;20498;-77
2023/06/10 06:14:06;;;;;;;34.15;31.75;;;19.80;99.90;;;;;;5044239;28;20248;-77
2023/06/10 06:16:33;;;;;;;33.85;31.50;;;20.00;99.90;;;;;;5035935;28;20117;-77
2023/06/10 06:19:00;;;;;;;33.97;31.83;;;20.40;99.90;;;;;;5054000;28;20149;-77
2023/06/10 06:21:26;;;;;;;33.90;31.70;;;21.00;99.90;;;;;;5053643;28;20395;-77
2023/06/10 06:23:53;;;;;;;34.78;32.50;;;21.60;99.90;;;;;;5074873;28;20048;-78
2023/06/10 06:26:20;;;;;;;35.78;33.20;;;22.00;99.90;;;;;;5050307;28;20076;-77
2023/06/10 06:28:47;;;;;;;34.78;32.67;;;22.30;99.90;;;;;;5062813;28;20040;-77
2023/06/10 06:31:14;;;;;;;35.03;33.00;;;22.30;99.90;;;;;;5056086;28;20048;-75
2023/06/10 06:33:41;;;;;;;38.20;35.53;;;22.10;99.90;;;;;;5068530;28;20048;-77
2023/06/10 06:36:07;;;;;;;38.28;35.65;;;21.60;99.90;;;;;;5067230;28;20056;-77
2023/06/10 06:38:34;;;;;;;38.67;36.10;;;22.00;99.90;;;;;;5051597;28;20053;-76
2023/06/10 06:41:03;;;;;;;38.85;36.35;;;22.70;99.90;;;;;;5047976;28;20067;-76
2023/06/10 06:43:33;;;;;;;39.78;37.38;;;23.20;99.90;;;;;;5068709;28;20349;-76
2023/06/10 06:46:09;;;;;;;41.22;38.75;;;22.60;99.90;;;;;;5046168;28;20306;-76
2023/06/10 06:48:36;;;;;;;40.72;38.08;;;22.50;99.90;;;;;;5051699;28;20076;-77
2023/06/10 06:51:03;;;;;;;39.65;37.08;;;22.60;99.90;;;;;;5046616;28;20064;-76
2023/06/10 06:53:30;;;;;;;40.05;37.45;;;23.30;99.90;;;;;;5049074;28;20036;-76
2023/06/10 06:56:00;;;;;;;40.17;37.60;;;23.70;99.90;;;;;;5044221;28;20040;-77
2023/06/10 06:58:26;;;;;;;39.88;37.40;;;23.90;99.90;;;;;;5066402;28;20224;-74
2023/06/10 07:00:53;;;;;;;40.38;37.65;;;23.60;99.90;;;;;;5071317;28;20048;-77
2023/06/10 07:03:21;;;;;;;39.63;37.05;;;24.00;99.90;;;;;;5038212;28;20040;-75
2023/06/10 07:05:48;;;;;;;40.13;37.55;;;24.50;99.90;;;;;;5052708;28;20052;-77
2023/06/10 07:08:15;;;;;;;40.53;38.15;;;24.70;99.90;;;;;;5047515;28;21451;-77
2023/06/10 07:10:41;;;;;;;40.08;37.42;;;24.80;99.90;;;;;;5025948;28;20097;-76
2023/06/10 07:13:08;;;;;;;42.17;39.70;;;25.10;99.90;;;;;;5041311;28;20044;-74
2023/06/10 07:15:35;;;;;;;40.45;37.97;;;25.10;99.90;;;;;;5056709;28;20167;-76
2023/06/10 07:18:02;;;;;;;42.38;39.42;;;24.80;99.90;;;;;;5064884;28;20048;-74
2023/06/10 07:20:28;;;;;;;41.25;38.75;;;24.70;99.90;;;;;;5044053;28;20044;-76
2023/06/10 07:22:55;;;;;;;42.58;39.90;;;23.70;99.90;;;;;;5043454;28;20052;-76
2023/06/10 07:25:22;;;;;;;42.90;40.28;;;23.20;99.90;;;;;;5052427;28;20050;-74
2023/06/10 07:27:49;;;;;;;42.17;39.67;;;23.40;99.90;;;;;;5058343;28;20048;-75
2023/06/10 07:30:16;;;;;;;44.85;41.80;;;23.30;99.90;;;;;;5048850;28;20076;-74
2023/06/10 07:32:43;;;;;;;44.70;41.80;;;23.40;99.90;;;;;;5047258;28;20068;-74
2023/06/10 07:35:11;;;;;;;43.70;41.10;;;23.40;99.90;;;;;;5052291;28;20040;-74
2023/06/10 07:37:39;;;;;;;44.60;41.90;;;24.00;99.90;;;;;;5046921;28;20055;-75
2023/06/10 07:40:06;;;;;;;44.15;41.65;;;24.00;99.90;;;;;;5064685;28;20113;-76
2023/06/10 07:42:36;;;;;;;42.88;40.45;;;24.00;99.90;;;;;;5033976;28;20147;-76
2023/06/10 07:45:04;;;;;;;45.17;42.20;;;23.70;99.90;;;;;;5053776;28;20514;-75
2023/06/10 07:47:33;;;;;;;42.80;40.35;;;23.00;99.90;;;;;;5064074;28;20181;-74
2023/06/10 07:50:01;;;;;;;45.20;42.28;;;23.60;99.90;;;;;;5038178;28;20459;-75
2023/06/10 07:52:28;;;;;;;46.33;43.20;;;23.90;99.90;;;;;;5045500;28;20047;-75
2023/06/10 07:54:55;;;;;;;45.65;42.85;;;23.70;99.90;;;;;;5028821;28;20043;-74
2023/06/10 07:57:21;;;;;;;45.55;42.78;;;23.70;99.90;;;;;;5051959;28;20036;-76
2023/06/10 07:59:48;;;;;;;44.20;41.50;;;23.20;99.90;;;;;;5070601;28;20098;-76
2023/06/10 08:02:15;;;;;;;47.10;44.15;;;22.90;99.90;;;;;;5048620;28;20448;-75
2023/06/10 08:04:42;;;;;;;45.08;42.42;;;22.80;99.90;;;;;;5049509;28;20567;-76
2023/06/10 08:07:09;;;;;;;44.13;41.28;;;23.20;99.90;;;;;;5041319;28;20563;-76
2023/06/10 08:09:36;;;;;;;47.60;44.75;;;23.50;99.90;;;;;;5045544;28;20095;-77
2023/06/10 08:12:03;;;;;;;45.20;42.60;;;24.00;99.90;;;;;;5049515;28;20118;-75
2023/06/10 08:14:30;;;;;;;45.70;43.15;;;24.20;99.90;;;;;;5055417;28;20455;-75
2023/06/10 08:16:57;;;;;;;44.70;42.05;;;24.40;99.90;;;;;;5050598;28;20056;-75
2023/06/10 08:19:24;;;;;;;45.42;42.60;;;24.10;99.90;;;;;;5054828;28;20042;-75
2023/06/10 08:21:51;;;;;;;44.78;42.17;;;23.80;99.90;;;;;;5056108;28;20068;-75
2023/06/10 08:24:18;;;;;;;45.28;42.78;;;24.40;99.90;;;;;;5053316;28;20044;-76
2023/06/10 08:26:45;;;;;;;45.22;42.53;;;24.80;99.90;;;;;;5056180;28;20040;-76
2023/06/10 08:29:13;;;;;;;45.63;43.03;;;25.30;99.90;;;;;;5038836;28;20036;-76
2023/06/10 08:31:43;;;;;;;45.53;42.92;;;25.20;99.90;;;;;;5044336;28;20409;-77
2023/06/10 08:34:11;;;;;;;46.67;43.88;;;24.90;99.90;;;;;;5054643;28;20043;-76
2023/06/10 08:36:38;;;;;;;49.25;46.33;;;25.40;99.90;;;;;;5103220;22;20047;-70
2023/06/10 08:39:06;;;;;;;48.72;45.75;;;26.10;99.90;;;;;;5092097;27;20046;-70
2023/06/10 08:41:42;;;;;;;48.83;46.05;;;25.70;99.90;;;;;;5110598;27;20059;-70
2023/06/10 08:44:22;;;;;;;52.72;49.67;;;25.60;99.90;;;;;;5085148;27;20043;-71
2023/06/10 08:46:50;;;;;;;51.67;48.65;;;26.10;99.90;;;;;;5089149;27;20040;-70
2023/06/10 08:49:21;;;;;;;50.10;47.35;;;25.70;99.90;;;;;;5086912;28;20036;-70
2023/06/10 08:52:00;;;;;;;50.10;47.17;;;25.20;99.90;;;;;;5088047;28;20597;-71
2023/06/10 08:54:37;;;;;;;51.17;47.97;;;25.40;99.90;;;;;;5093292;28;20213;-72
2023/06/10 08:57:06;;;;;;;48.97;46.38;;;25.80;99.90;;;;;;5080498;28;20056;-72
2023/06/10 08:59:33;;;;;;;47.30;44.25;;;25.70;99.90;;;;;;5085606;28;20055;-71
2023/06/10 09:02:02;;;;;;;48.95;45.90;;;25.40;99.90;;;;;;5085706;28;20716;-71
2023/06/10 09:04:30;;;;;;;48.28;45.67;;;25.30;99.90;;;;;;5059451;28;20059;-72
2023/06/10 09:06:57;;;;;;;48.05;45.00;;;25.50;99.90;;;;;;5088325;28;20048;-72
2023/06/10 09:09:27;;;;;;;49.85;47.05;;;25.40;99.90;;;;;;5070742;28;20596;-72
2023/06/10 09:11:54;;;;;;;48.10;45.30;;;25.50;99.90;;;;;;5069170;28;20055;-72
2023/06/10 09:14:20;;;;;;;48.38;45.45;;;25.40;99.90;;;;;;5072355;28;20067;-72
2023/06/10 09:16:48;;;;;;;49.72;46.70;;;25.50;99.90;;;;;;5088854;28;20046;-71
2023/06/10 09:19:16;;;;;;;49.05;46.10;;;25.20;99.90;;;;;;5087920;28;20070;-72
2023/06/10 09:21:43;;;;;;;50.22;47.30;;;25.30;99.90;;;;;;5090299;28;20066;-72
2023/06/10 09:24:10;;;;;;;49.10;46.03;;;25.50;99.90;;;;;;5064416;28;20051;-72
2023/06/10 09:26:37;;;;;;;49.45;46.55;;;25.50;99.90;;;;;;5082256;28;20058;-72
2023/06/10 09:29:08;;;;;;;48.55;45.75;;;25.60;99.90;;;;;;5071203;28;21816;-70
2023/06/10 09:31:36;;;;;;;50.40;47.63;;;25.20;99.90;;;;;;5093333;28;20376;-73
2023/06/10 09:34:06;;;;;;;49.33;46.53;;;25.70;99.90;;;;;;5089669;28;20520;-70
2023/06/10 09:36:35;;;;;;;48.67;45.75;;;25.90;99.90;;;;;;5056479;28;20112;-72
2023/06/10 09:39:02;;;;;;;49.63;46.83;;;26.30;99.90;;;;;;5089994;28;20067;-73
2023/06/10 09:41:39;;;;;;;47.97;45.35;;;26.30;99.90;;;;;;5087266;28;20058;-73
2023/06/10 09:44:16;;;;;;;49.25;46.25;;;26.60;99.90;;;;;;5083850;28;20054;-73
2023/06/10 09:46:46;;;;;;;50.35;47.40;;;26.10;99.90;;;;;;5091792;28;20046;-74
2023/06/10 09:49:13;;;;;;;49.13;46.40;;;25.40;99.90;;;;;;5088644;28;20202;-71
2023/06/10 09:51:51;;;;;;;49.17;46.53;;;25.00;99.90;;;;;;5085681;28;20467;-73
2023/06/10 09:54:19;;;;;;;48.20;45.45;;;25.40;99.90;;;;;;5083054;28;20927;-74
2023/06/10 09:56:51;;;;;;;49.97;47.03;;;26.00;99.90;;;;;;5089710;28;20051;-71
2023/06/10 09:59:32;;;;;;;48.17;45.58;;;26.20;99.90;;;;;;5088389;28;20586;-73
2023/06/10 10:02:00;;;;;;;47.35;44.63;;;26.00;99.90;;;;;;5087685;28;20071;-73
2023/06/10 10:04:28;;;;;;;47.97;45.22;;;25.80;99.90;;;;;;5074605;28;20040;-73
2023/06/10 10:06:55;;;;;;;47.40;44.63;;;26.50;99.90;;;;;;5091626;28;20280;-73
2023/06/10 10:09:22;;;;;;;49.90;47.10;;;26.70;99.90;;;;;;5064216;28;20044;-73
2023/06/10 10:11:49;;;;;;;52.65;49.70;;;26.50;99.90;;;;;;5083321;28;20044;-74
2023/06/10 10:14:18;;;;;;;52.78;49.35;;;26.00;99.90;;;;;;5088761;28;20390;-73
2023/06/10 10:16:46;;;;;;;51.92;49.05;;;25.90;99.90;;;;;;5088341;28;20061;-73
2023/06/10 10:19:50;;;;;;;54.15;51.15;;;26.00;99.90;;;;;;5070067;28;20059;-72
2023/06/10 10:22:29;;;;;;;52.08;48.60;;;26.00;99.90;;;;;;5079224;28;20040;-73
2023/06/10 10:24:59;;;;;;;49.60;46.85;;;26.40;99.90;;;;;;5091947;28;20570;-73
2023/06/10 10:27:36;;;;;;;50.45;47.45;;;26.60;99.90;;;;;;5071930;28;21110;-73
2023/06/10 10:30:08;;;;;;;50.55;47.08;;;26.30;99.90;;;;;;5087424;28;20343;-72
2023/06/10 10:32:42;;;;;;;49.90;46.92;;;25.70;99.90;;;;;;5071779;28;20039;-73
2023/06/10 10:35:17;;;;;;;48.83;45.80;;;26.10;99.90;;;;;;5083590;28;20040;-72
2023/06/10 10:37:44;;;;;;;49.80;46.70;;;27.10;99.90;;;;;;5064196;28;20052;-74
2023/06/10 10:40:12;;;;;;;52.05;49.17;;;27.30;99.90;;;;;;5086969;28;20122;-73
2023/06/10 10:42:40;;;;;;;53.08;49.88;;;27.00;99.90;;;;;;5087879;28;20094;-73
2023/06/10 10:45:08;;;;;;;51.83;48.80;;;27.40;99.90;;;;;;5084364;28;20501;-73
2023/06/10 10:47:37;;;;;;;52.50;49.50;;;27.30;99.90;;;;;;5091842;28;20055;-73
2023/06/10 10:50:17;;;;;;;50.88;47.95;;;26.40;99.90;;;;;;5082567;28;20056;-73
2023/06/10 10:52:58;;;;;;;51.40;48.10;;;26.00;99.90;;;;;;5082815;28;20043;-73
2023/06/10 10:55:26;;;;;;;49.88;46.97;;;26.20;99.90;;;;;;5070023;28;20591;-73
2023/06/10 10:58:07;;;;;;;53.28;49.75;;;26.10;99.90;;;;;;5074550;28;20569;-73
2023/06/10 11:00:36;;;;;;;54.15;50.67;;;26.40;99.90;;;;;;5071362;28;20040;-73
2023/06/10 11:03:02;;;;;;;51.05;48.15;;;26.60;99.90;;;;;;5071223;28;20069;-71
2023/06/10 11:05:47;;;;;;;52.58;49.15;;;25.90;99.90;;;;;;5052117;28;20521;-72
2023/06/10 11:08:34;;;;;;;53.65;50.35;;;26.00;99.90;;;;;;5086283;28;20044;-72
2023/06/10 11:11:18;;;;;;;53.75;50.65;;;26.30;99.90;;;;;;5074011;28;20051;-73
2023/06/10 11:14:01;;;;;;;51.58;48.55;;;26.30;99.90;;;;;;5087094;28;20253;-72
2023/06/10 11:16:28;;;;;;;53.67;50.40;;;26.90;99.90;;;;;;5071357;28;20104;-73
2023/06/10 11:18:56;;;;;;;52.40;49.40;;;27.00;99.90;;;;;;5089928;28;20052;-72
2023/06/10 11:21:25;;;;;;;52.25;49.25;;;26.60;99.90;;;;;;5085683;28;20523;-72
2023/06/10 11:23:58;;;;;;;53.17;49.90;;;26.60;99.90;;;;;;5087292;28;20056;-72
2023/06/10 11:26:32;;;;;;;52.92;49.75;;;27.50;99.90;;;;;;5068231;28;20279;-71
2023/06/10 11:28:58;;;;;;;52.00;49.05;;;27.90;99.90;;;;;;5085408;28;20044;-72
2023/06/10 11:31:30;;;;;;;50.20;47.15;;;27.80;99.90;;;;;;5081918;28;20036;-73
2023/06/10 11:34:00;;;;;;;54.15;51.00;;;27.60;99.90;;;;;;5068701;28;20044;-72
2023/06/10 11:36:28;;;;;;;51.38;48.40;;;27.00;99.90;;;;;;5070094;28;20544;-72
2023/06/10 11:39:00;;;;;;;53.55;50.15;;;26.90;99.90;;;;;;5057965;28;20135;-72
2023/06/10 11:41:28;;;;;;;52.15;48.88;;;27.00;99.90;;;;;;5061906;28;20081;-72
2023/06/10 11:43:56;;;;;;;53.10;50.00;;;26.70;99.90;;;;;;5066187;28;20535;-72
2023/06/10 11:46:26;;;;;;;50.42;47.42;;;27.00;99.90;;;;;;5063159;28;20626;-73
2023/06/10 11:49:00;;;;;;;50.63;47.67;;;26.90;99.90;;;;;;5069992;28;20139;-72
2023/06/10 11:51:28;;;;;;;53.53;50.58;;;26.60;99.90;;;;;;5082168;28;20405;-72
2023/06/10 11:53:55;;;;;;;52.42;49.17;;;26.30;99.90;;;;;;5067399;28;20326;-72
2023/06/10 11:56:27;;;;;;;50.70;47.88;;;26.70;99.90;;;;;;5082972;28;20031;-73
2023/06/10 11:59:00;;;;;;;50.55;47.55;;;27.10;99.90;;;;;;5081316;28;20483;-72
2023/06/10 12:01:27;;;;;;;50.25;47.40;;;27.20;99.90;;;;;;5084602;28;20502;-72
2023/06/10 12:04:04;;;;;;;49.63;46.63;;;26.70;99.90;;;;;;5088279;28;20109;-73
2023/06/10 12:06:46;;;;;;;51.10;48.22;;;26.50;99.90;;;;;;5071613;28;21232;-73
2023/06/10 12:09:15;;;;;;;51.42;48.47;;;27.10;99.90;;;;;;5085747;28;20100;-73
2023/06/10 12:12:03;;;;;;;50.22;47.30;;;26.80;99.90;;;;;;5067164;28;20052;-73
2023/06/10 12:14:54;;;;;;;51.28;48.25;;;26.10;99.90;;;;;;5085853;28;20135;-73
2023/06/10 12:17:23;;;;;;;51.60;48.50;;;26.00;99.90;;;;;;5068749;28;20103;-72
2023/06/10 12:19:51;;;;;;;51.28;48.17;;;26.40;99.90;;;;;;5071883;28;20035;-72
2023/06/10 12:22:19;;;;;;;52.55;49.35;;;26.60;99.90;;;;;;5065903;28;20047;-73
2023/06/10 12:25:06;;;;;;;51.20;47.90;;;26.80;99.90;;;;;;5088358;28;20062;-73
2023/06/10 12:27:36;;;;;;;51.88;48.80;;;27.70;99.90;;;;;;5089985;28;20055;-73
2023/06/10 12:30:05;;;;;;;52.60;49.53;;;27.30;99.90;;;;;;5092118;28;20040;-73
2023/06/10 12:32:43;;;;;;;53.25;50.25;;;27.20;99.90;;;;;;5090774;28;20054;-73
2023/06/10 12:35:12;;;;;;;53.22;50.08;;;26.50;99.90;;;;;;5077660;28;20098;-73
2023/06/10 12:37:41;;;;;;;52.45;49.35;;;26.00;99.90;;;;;;5058280;28;20065;-73